createdAt,value
2023-05-21T00:02:38.061Z,100686.03
2023-05-21T00:06:46.256Z,100692.98
2023-05-21T00:10:54.064Z,100690.14
2023-05-21T00:15:05.763Z,100689.41
2023-05-21T00:19:15.984Z,100688.70
2023-05-21T00:23:23.631Z,100687.96
2023-05-21T00:27:32.194Z,100682.42
2023-05-21T00:31:40.606Z,100677.60
2023-05-21T00:35:49.297Z,100676.98
2023-05-21T00:39:58.283Z,100676.22
2023-05-21T00:44:06.199Z,100676.65
2023-05-21T00:48:15.489Z,100676.89
2023-05-21T00:52:23.518Z,100680.77
2023-05-21T00:56:31.221Z,100681.85
2023-05-21T01:00:40.879Z,100677.88
2023-05-21T01:04:49.303Z,100675.25
2023-05-21T01:08:57.494Z,100671.89
2023-05-21T01:13:05.452Z,100676.20
2023-05-21T01:17:13.995Z,100676.88
2023-05-21T01:21:23.468Z,100671.58
2023-05-21T01:25:31.602Z,100665.04
2023-05-21T01:29:39.449Z,100661.18
2023-05-21T01:33:50.773Z,100655.61
2023-05-21T01:38:04.902Z,100652.77
2023-05-21T01:42:14.122Z,100653.99
2023-05-21T01:46:26.073Z,100654.91
2023-05-21T01:50:34.088Z,100655.05
2023-05-21T01:54:41.881Z,100648.73
2023-05-21T01:58:50.536Z,100648.95
2023-05-21T02:02:58.956Z,100650.54
2023-05-21T02:07:09.705Z,100649.43
2023-05-21T02:11:21.315Z,100645.26
2023-05-21T02:15:29.507Z,100641.19
2023-05-21T02:19:37.309Z,100642.05
2023-05-21T02:23:44.892Z,100638.88
2023-05-21T02:27:54.245Z,100638.77
2023-05-21T02:32:02.694Z,100643.34
2023-05-21T02:36:13.359Z,100638.20
2023-05-21T02:40:25.481Z,100631.45
2023-05-21T02:44:33.013Z,100631.32
2023-05-21T02:48:40.896Z,100625.71
2023-05-21T02:52:48.947Z,100623.92
2023-05-21T02:56:57.332Z,100622.42
2023-05-21T03:01:05.103Z,100627.84
2023-05-21T03:05:12.777Z,100625.80
2023-05-21T03:09:21.775Z,100626.17
2023-05-21T03:13:30.211Z,100631.30
2023-05-21T03:17:37.875Z,100629.13
2023-05-21T03:21:49.309Z,100627.45
2023-05-21T03:25:57.215Z,100624.50
2023-05-21T03:30:06.836Z,100622.67
2023-05-21T03:34:14.960Z,100624.70
2023-05-21T03:38:23.020Z,100624.02
2023-05-21T03:42:32.740Z,100626.66
2023-05-21T03:46:40.671Z,100621.55
2023-05-21T03:50:48.500Z,100624.27
2023-05-21T03:54:55.850Z,100628.16
2023-05-21T03:59:03.772Z,100629.92
2023-05-21T04:03:12.145Z,100623.92
2023-05-21T04:07:20.340Z,100625.87
2023-05-21T04:11:28.455Z,100626.47
2023-05-21T04:15:36.306Z,100625.70
2023-05-21T04:19:45.383Z,100625.80
2023-05-21T04:23:54.245Z,100620.19
2023-05-21T04:28:03.369Z,100625.40
2023-05-21T04:32:11.814Z,100629.77
2023-05-21T04:36:20.474Z,100632.39
2023-05-21T04:40:28.304Z,100632.23
2023-05-21T04:44:36.356Z,100627.48
2023-05-21T04:48:45.370Z,100628.43
2023-05-21T04:52:54.830Z,100629.20
2023-05-21T04:57:03.036Z,100631.63
2023-05-21T05:01:10.847Z,100635.91
2023-05-21T05:05:19.289Z,100644.06
2023-05-21T05:09:27.436Z,100641.63
2023-05-21T05:13:37.329Z,100638.94
2023-05-21T05:17:48.558Z,100637.52
2023-05-21T05:21:57.004Z,100629.65
2023-05-21T05:26:04.987Z,100629.46
2023-05-21T05:30:14.490Z,100624.90
2023-05-21T05:34:22.674Z,100621.81
2023-05-21T05:38:30.595Z,100626.78
2023-05-21T05:42:38.684Z,100619.52
2023-05-21T05:46:46.866Z,100618.64
2023-05-21T05:50:57.828Z,100614.11
2023-05-21T05:55:10.238Z,100610.51
2023-05-21T05:59:18.461Z,100611.83
2023-05-21T06:03:28.534Z,100614.10
2023-05-21T06:07:37.529Z,100609.44
2023-05-21T06:11:45.142Z,100604.04
2023-05-21T06:15:54.001Z,100601.14
2023-05-21T06:20:01.606Z,100603.06
2023-05-21T06:24:11.813Z,100604.39
2023-05-21T06:28:21.624Z,100604.73
2023-05-21T06:32:29.540Z,100600.29
2023-05-21T06:36:37.785Z,100602.69
2023-05-21T06:40:47.635Z,100599.85
2023-05-21T06:44:55.592Z,100605.85
2023-05-21T06:49:03.526Z,100596.27
2023-05-21T06:53:11.711Z,100597.44
2023-05-21T06:57:20.010Z,100592.63
2023-05-21T07:01:28.909Z,100590.80
2023-05-21T07:05:37.306Z,100580.14
2023-05-21T07:09:45.640Z,100580.31
2023-05-21T07:13:59.028Z,100583.42
2023-05-21T07:18:07.095Z,100583.83
2023-05-21T07:22:14.857Z,100582.52
2023-05-21T07:26:22.852Z,100577.41
2023-05-21T07:30:33.126Z,100574.29
2023-05-21T07:34:40.877Z,100575.91
2023-05-21T07:38:48.624Z,100575.81
2023-05-21T07:42:57.231Z,100575.19
2023-05-21T07:47:05.258Z,100578.48
2023-05-21T07:51:14.076Z,100577.52
2023-05-21T07:55:21.420Z,100568.67
2023-05-21T07:59:29.621Z,100568.17
2023-05-21T08:03:38.133Z,100566.71
2023-05-21T08:07:46.608Z,100562.70
2023-05-21T08:11:55.797Z,100560.71
2023-05-21T08:16:03.764Z,100554.69
2023-05-21T08:20:14.663Z,100554.23
2023-05-21T08:24:22.917Z,100557.27
2023-05-21T08:28:31.620Z,100558.33
2023-05-21T08:32:39.742Z,100560.99
2023-05-21T08:36:50.798Z,100561.56
2023-05-21T08:40:59.165Z,100559.52
2023-05-21T08:45:09.209Z,100556.23
2023-05-21T08:49:19.373Z,100556.98
2023-05-21T08:53:28.960Z,100551.16
2023-05-21T08:57:38.148Z,100555.38
2023-05-21T09:01:47.114Z,100553.52
2023-05-21T09:05:56.466Z,100555.17
2023-05-21T09:10:10.723Z,100555.70
2023-05-21T09:14:20.141Z,100556.98
2023-05-21T09:18:28.204Z,100560.84
2023-05-21T09:22:36.273Z,100559.35
2023-05-21T09:26:45.808Z,100557.77
2023-05-21T09:30:55.710Z,100554.96
2023-05-21T09:35:10.453Z,100546.20
2023-05-21T09:39:31.008Z,100546.27
2023-05-21T09:43:39.860Z,100549.04
2023-05-21T09:47:49.600Z,100546.77
2023-05-21T09:51:59.920Z,100543.83
2023-05-21T09:56:09.636Z,100536.52
2023-05-21T10:00:24.845Z,100534.90
2023-05-21T10:04:33.562Z,100531.80
2023-05-21T10:08:45.876Z,100524.76
2023-05-21T10:12:59.099Z,100516.98
2023-05-21T10:17:10.049Z,100518.14
2023-05-21T10:21:18.385Z,100511.83
2023-05-21T10:25:26.722Z,100510.09
2023-05-21T10:29:34.757Z,100502.48
2023-05-21T10:33:42.366Z,100503.10
2023-05-21T10:37:49.744Z,100502.73
2023-05-21T10:42:06.097Z,100499.14
2023-05-21T10:46:36.867Z,100488.02
2023-05-21T10:51:07.010Z,100486.84
2023-05-21T10:55:24.710Z,100486.77
2023-05-21T10:59:41.637Z,100480.81
2023-05-21T11:03:49.915Z,100479.54
2023-05-21T11:08:04.833Z,100478.48
2023-05-21T11:12:13.141Z,100475.20
2023-05-21T11:16:23.285Z,100473.20
2023-05-21T11:20:37.131Z,100474.77
2023-05-21T11:24:46.180Z,100473.35
2023-05-21T11:29:09.803Z,100465.92
2023-05-21T11:33:23.330Z,100458.46
2023-05-21T11:37:41.951Z,100455.36
2023-05-21T11:41:58.868Z,100449.20
2023-05-21T11:46:07.727Z,100448.88
2023-05-21T11:50:18.342Z,100448.09
2023-05-21T11:54:27.885Z,100443.48
2023-05-21T11:58:35.728Z,100439.14
2023-05-21T12:02:47.755Z,100435.30
2023-05-21T12:06:55.458Z,100435.11
2023-05-21T12:11:03.676Z,100430.17
2023-05-21T12:15:15.032Z,100432.21
2023-05-21T12:19:22.974Z,100426.80
2023-05-21T12:23:31.932Z,100425.78
2023-05-21T12:27:40.032Z,100418.66
2023-05-21T12:31:52.567Z,100423.08
2023-05-21T12:36:01.131Z,100418.66
2023-05-21T12:40:12.526Z,100419.88
2023-05-21T12:44:22.451Z,100418.01
2023-05-21T12:48:30.686Z,100422.52
2023-05-21T12:52:38.427Z,100420.30
2023-05-21T12:56:49.664Z,100416.70
2023-05-21T13:00:59.440Z,100416.06
2023-05-21T13:05:09.285Z,100419.20
2023-05-21T13:09:17.190Z,100417.97
2023-05-21T13:13:24.427Z,100414.67
2023-05-21T13:17:32.240Z,100413.09
2023-05-21T13:21:40.120Z,100406.20
2023-05-21T13:25:48.008Z,100402.00
2023-05-21T13:29:55.633Z,100395.69
2023-05-21T13:34:05.563Z,100397.60
2023-05-21T13:38:13.280Z,100396.60
2023-05-21T13:42:21.703Z,100398.63
2023-05-21T13:46:29.713Z,100400.95
2023-05-21T13:50:38.511Z,100405.98
2023-05-21T13:54:49.796Z,100401.21
2023-05-21T13:58:57.436Z,100400.99
2023-05-21T14:03:06.862Z,100403.60
2023-05-21T14:07:14.832Z,100403.23
2023-05-21T14:11:23.161Z,100399.88
2023-05-21T14:15:32.439Z,100403.95
2023-05-21T14:19:39.963Z,100400.05
2023-05-21T14:23:48.455Z,100394.46
2023-05-21T14:27:56.239Z,100394.02
2023-05-21T14:32:04.330Z,100388.38
2023-05-21T14:36:12.411Z,100393.21
2023-05-21T14:40:20.319Z,100391.66
2023-05-21T14:44:30.118Z,100391.90
2023-05-21T14:48:38.572Z,100382.54
2023-05-21T14:52:46.458Z,100382.45
2023-05-21T14:56:54.510Z,100379.51
2023-05-21T15:01:04.473Z,100378.92
2023-05-21T15:05:12.883Z,100374.63
2023-05-21T15:09:20.602Z,100371.11
2023-05-21T15:13:28.885Z,100373.39
2023-05-21T15:17:37.821Z,100373.71
2023-05-21T15:21:46.264Z,100370.63
2023-05-21T15:25:55.690Z,100372.14
2023-05-21T15:30:03.975Z,100371.67
2023-05-21T15:34:14.738Z,100368.30
2023-05-21T15:38:22.680Z,100369.08
2023-05-21T15:42:32.053Z,100363.39
2023-05-21T15:46:39.729Z,100359.16
2023-05-21T15:50:47.365Z,100358.73
2023-05-21T15:54:55.102Z,100353.61
2023-05-21T15:59:03.980Z,100350.09
2023-05-21T16:03:14.197Z,100349.70
2023-05-21T16:07:24.221Z,100338.02
2023-05-21T16:11:31.835Z,100334.29
2023-05-21T16:15:39.411Z,100334.39
2023-05-21T16:19:47.825Z,100338.80
2023-05-21T16:23:55.983Z,100334.03
2023-05-21T16:28:05.747Z,100338.38
2023-05-21T16:32:14.312Z,100340.14
2023-05-21T16:36:22.858Z,100344.95
2023-05-21T16:40:31.981Z,100342.55
2023-05-21T16:44:39.629Z,100345.93
2023-05-21T16:48:47.580Z,100345.53
2023-05-21T16:52:55.803Z,100346.38
2023-05-21T16:57:05.517Z,100354.85
2023-05-21T17:01:13.283Z,100355.77
2023-05-21T17:05:21.573Z,100359.64
2023-05-21T17:09:29.792Z,100362.13
2023-05-21T17:13:37.459Z,100363.41
2023-05-21T17:17:45.116Z,100363.48
2023-05-21T17:21:53.034Z,100361.83
2023-05-21T17:26:01.780Z,100366.34
2023-05-21T17:30:16.150Z,100369.42
2023-05-21T17:34:26.335Z,100362.69
2023-05-21T17:38:33.784Z,100360.58
2023-05-21T17:42:41.955Z,100358.20
2023-05-21T17:46:50.244Z,100361.23
2023-05-21T17:50:58.771Z,100365.02
2023-05-21T17:55:07.951Z,100365.89
2023-05-21T17:59:16.056Z,100365.80
2023-05-21T18:03:24.222Z,100373.02
2023-05-21T18:07:33.417Z,100373.50
2023-05-21T18:11:42.886Z,100376.27
2023-05-21T18:15:50.516Z,100379.81
2023-05-21T18:19:58.285Z,100380.35
2023-05-21T18:24:09.863Z,100385.20
2023-05-21T18:28:17.730Z,100383.45
2023-05-21T18:32:25.584Z,100385.85
2023-05-21T18:36:39.029Z,100388.23
2023-05-21T18:40:46.995Z,100388.98
2023-05-21T18:44:55.166Z,100387.45
2023-05-21T18:49:03.183Z,100384.48
2023-05-21T18:53:11.802Z,100384.70
2023-05-21T18:57:19.500Z,100392.11
2023-05-21T19:01:27.587Z,100389.73
2023-05-21T19:05:35.406Z,100393.05
2023-05-21T19:09:43.416Z,100392.64
2023-05-21T19:13:51.730Z,100393.20
2023-05-21T19:18:01.216Z,100393.54
2023-05-21T19:22:11.352Z,100395.15
2023-05-21T19:26:19.339Z,100400.36
2023-05-21T19:30:27.100Z,100400.33
2023-05-21T19:34:35.441Z,100403.30
2023-05-21T19:38:50.362Z,100398.34
2023-05-21T19:42:58.762Z,100394.06
2023-05-21T19:47:08.138Z,100391.44
2023-05-21T19:51:16.330Z,100386.17
2023-05-21T19:55:25.086Z,100386.33
2023-05-21T19:59:33.596Z,100384.86
2023-05-21T20:03:43.192Z,100384.38
2023-05-21T20:07:52.193Z,100384.27
2023-05-21T20:12:02.155Z,100386.30
2023-05-21T20:16:12.882Z,100389.15
2023-05-21T20:20:23.091Z,100385.29
2023-05-21T20:24:31.300Z,100378.86
2023-05-21T20:28:39.337Z,100371.22
2023-05-21T20:32:47.518Z,100372.45
2023-05-21T20:36:58.295Z,100370.45
2023-05-21T20:41:06.280Z,100368.52
2023-05-21T20:45:17.372Z,100371.81
2023-05-21T20:49:26.190Z,100370.45
2023-05-21T20:53:34.184Z,100370.77
2023-05-21T20:57:42.495Z,100367.86
2023-05-21T21:01:50.775Z,100370.22
2023-05-21T21:06:01.316Z,100371.66
2023-05-21T21:10:11.030Z,100373.68
2023-05-21T21:14:19.014Z,100373.67
2023-05-21T21:18:26.616Z,100375.89
2023-05-21T21:22:34.133Z,100373.88
2023-05-21T21:26:41.637Z,100377.13
2023-05-21T21:30:50.804Z,100376.90
2023-05-21T21:34:58.246Z,100382.30
2023-05-21T21:39:06.187Z,100386.52
2023-05-21T21:43:15.326Z,100389.23
2023-05-21T21:47:23.483Z,100395.00
2023-05-21T21:51:32.050Z,100388.80
2023-05-21T21:55:40.125Z,100391.54
2023-05-21T21:59:51.777Z,100399.06
2023-05-21T22:03:59.834Z,100401.57
2023-05-21T22:08:07.883Z,100401.05
2023-05-21T22:12:19.344Z,100403.23
2023-05-21T22:16:28.342Z,100398.15
2023-05-21T22:20:36.412Z,100401.08
2023-05-21T22:24:44.533Z,100401.54
2023-05-21T22:28:54.932Z,100399.04
2023-05-21T22:33:02.964Z,100402.74
2023-05-21T22:37:11.298Z,100404.50
2023-05-21T22:41:20.971Z,100402.11
2023-05-21T22:45:29.240Z,100400.80
2023-05-21T22:49:38.325Z,100403.86
2023-05-21T22:53:46.935Z,100404.86
2023-05-21T22:57:55.063Z,100404.10
2023-05-21T23:02:03.668Z,100403.42
2023-05-21T23:06:11.605Z,100397.98
2023-05-21T23:10:19.540Z,100395.73
2023-05-21T23:14:27.253Z,100398.89
2023-05-21T23:18:35.125Z,100395.45
2023-05-21T23:22:43.012Z,100391.47
2023-05-21T23:26:51.188Z,100387.95
2023-05-21T23:30:58.754Z,100383.92
2023-05-21T23:35:07.856Z,100384.77
2023-05-21T23:39:15.909Z,100383.55
2023-05-21T23:43:24.542Z,100389.46
2023-05-21T23:47:32.520Z,100390.95
2023-05-21T23:51:40.357Z,100390.24
2023-05-21T23:55:50.985Z,100390.85
2023-05-21T23:59:58.480Z,100387.84
